Time;durP1;ratioP1;P1;durP2;ratioP2;P2;SDS_P1;SDS_P2;PMS_P1;PMS_P2;Temp;Humidity;BMP_temperature;BMP_pressure;BME280_temperature;BME280_humidity;BME280_pressure;Samples;Min_cycle;Max_cycle;Signal;HPM_P1;HPM_P2
2022/12/04 00:00:12;;;;;;;9.02;4.03;;;12.20;96.30;;;;;;5050448;28;20028;-93
2022/12/04 00:02:39;;;;;;;17.85;5.00;;;12.20;96.30;;;;;;5050331;28;20057;-93
2022/12/04 00:05:06;;;;;;;9.85;5.00;;;12.20;96.30;;;;;;5050280;28;20633;-94
2022/12/04 00:07:31;;;;;;;15.55;5.80;;;12.20;96.30;;;;;;5034657;28;20093;-93
2022/12/04 00:09:57;;;;;;;10.98;4.68;;;12.20;96.30;;;;;;5055564;28;20051;-94
2022/12/04 00:12:23;;;;;;;13.60;4.53;;;12.20;96.30;;;;;;5053563;28;20033;-93
2022/12/04 00:14:49;;;;;;;13.50;5.07;;;12.20;96.40;;;;;;5053821;28;20036;-94
2022/12/04 00:17:14;;;;;;;13.55;3.97;;;12.20;96.50;;;;;;5052875;28;20032;-92
2022/12/04 00:19:40;;;;;;;10.82;4.72;;;12.20;96.40;;;;;;5053501;28;20481;-94
2022/12/04 00:22:05;;;;;;;16.90;5.32;;;12.20;96.50;;;;;;5053258;28;20108;-94
2022/12/04 00:24:31;;;;;;;12.57;5.00;;;12.20;96.50;;;;;;5053072;28;20076;-93
2022/12/04 00:26:56;;;;;;;16.50;4.45;;;12.20;96.50;;;;;;5049671;28;20025;-94
2022/12/04 00:29:22;;;;;;;10.25;4.43;;;12.20;96.50;;;;;;5032990;28;20528;-94
2022/12/04 00:31:47;;;;;;;16.25;5.47;;;12.20;96.40;;;;;;5033584;28;20039;-94
2022/12/04 00:34:13;;;;;;;12.35;4.95;;;12.20;96.40;;;;;;5035287;28;20022;-94
2022/12/04 00:36:39;;;;;;;14.88;5.15;;;12.20;96.40;;;;;;5053053;28;20033;-93
2022/12/04 00:39:05;;;;;;;12.73;4.70;;;12.20;96.40;;;;;;5054043;28;20021;-93
2022/12/04 00:41:32;;;;;;;13.27;5.00;;;12.20;96.50;;;;;;5052944;28;20067;-93
2022/12/04 00:43:58;;;;;;;15.05;5.35;;;12.20;96.50;;;;;;5052506;28;20025;-93
2022/12/04 00:46:24;;;;;;;14.82;4.43;;;12.20;96.50;;;;;;5052616;28;20029;-94
2022/12/04 00:48:51;;;;;;;9.30;4.38;;;12.20;96.40;;;;;;5052473;28;20021;-94
2022/12/04 00:51:19;;;;;;;14.75;4.20;;;12.20;96.50;;;;;;5052607;28;20078;-93
2022/12/04 00:53:45;;;;;;;12.80;4.70;;;12.20;96.50;;;;;;5052589;28;20112;-93
2022/12/04 00:56:18;;;;;;;11.10;4.57;;;12.20;96.50;;;;;;5052558;28;20115;-94
2022/12/04 00:58:44;;;;;;;12.38;5.20;;;12.20;96.50;;;;;;5041034;28;20095;-94
2022/12/04 01:01:12;;;;;;;12.88;4.35;;;12.20;96.50;;;;;;5048349;28;20029;-94
2022/12/04 01:03:38;;;;;;;10.43;5.00;;;12.20;96.50;;;;;;5049066;28;20029;-94
2022/12/04 01:06:05;;;;;;;15.07;4.53;;;12.20;97.00;;;;;;5049186;28;20044;-91
2022/12/04 01:08:31;;;;;;;16.88;4.60;;;12.30;96.80;;;;;;5048737;28;20022;-91
2022/12/04 01:10:57;;;;;;;12.52;4.53;;;12.30;96.80;;;;;;5048941;28;20032;-91
2022/12/04 01:13:23;;;;;;;20.38;4.70;;;12.30;96.80;;;;;;5048826;28;20025;-91
2022/12/04 01:15:48;;;;;;;10.13;4.82;;;12.30;96.80;;;;;;5048626;28;20090;-91
2022/12/04 01:18:15;;;;;;;18.10;4.38;;;12.20;96.80;;;;;;5068376;28;20032;-91
2022/12/04 01:20:48;;;;;;;17.05;5.10;;;12.30;96.80;;;;;;5068741;28;20032;-90
2022/12/04 01:23:13;;;;;;;14.23;4.32;;;12.30;96.80;;;;;;5052031;28;20497;-91
2022/12/04 01:25:39;;;;;;;12.48;4.38;;;12.30;96.70;;;;;;5068353;28;20061;-91
2022/12/04 01:28:04;;;;;;;16.85;4.20;;;12.30;96.70;;;;;;5068470;28;20055;-91
2022/12/04 01:30:30;;;;;;;17.45;4.97;;;12.30;96.70;;;;;;5068670;28;20060;-91
2022/12/04 01:32:55;;;;;;;13.48;4.47;;;12.20;96.70;;;;;;5068456;28;20032;-91
2022/12/04 01:35:21;;;;;;;11.88;4.07;;;12.20;96.70;;;;;;5052944;28;20098;-93
2022/12/04 01:37:46;;;;;;;16.08;4.43;;;12.30;96.70;;;;;;5068244;28;20021;-91
2022/12/04 01:40:15;;;;;;;14.68;4.90;;;12.20;96.70;;;;;;5052840;28;20021;-91
2022/12/04 01:42:40;;;;;;;10.48;4.30;;;12.20;96.70;;;;;;5068130;28;20168;-91
2022/12/04 01:45:32;;;;;;;12.75;4.25;;;12.20;96.70;;;;;;5068164;28;20111;-91
2022/12/04 01:48:14;;;;;;;8.57;3.83;;;12.30;96.70;;;;;;5051245;28;20025;-92
2022/12/04 01:50:42;;;;;;;17.02;4.13;;;12.20;96.60;;;;;;5068203;28;20029;-91
2022/12/04 01:53:07;;;;;;;7.55;3.55;;;12.30;96.60;;;;;;5068385;28;20025;-91
2022/12/04 01:55:33;;;;;;;14.27;4.70;;;12.30;96.70;;;;;;5068158;28;20552;-90
2022/12/04 01:58:00;;;;;;;10.50;4.28;;;12.20;96.70;;;;;;5068122;28;20086;-91
2022/12/04 02:00:26;;;;;;;9.93;4.03;;;12.20;96.70;;;;;;5052531;28;20049;-91
2022/12/04 02:02:51;;;;;;;10.18;3.65;;;12.30;96.70;;;;;;5052558;28;20021;-92
2022/12/04 02:05:20;;;;;;;11.05;4.20;;;12.30;96.70;;;;;;5068017;28;20025;-91
2022/12/04 02:07:48;;;;;;;9.73;4.13;;;12.30;96.70;;;;;;5051132;28;20513;-91
2022/12/04 02:10:16;;;;;;;12.10;4.57;;;12.20;96.70;;;;;;5052423;28;20036;-91
2022/12/04 02:13:08;;;;;;;9.02;3.80;;;12.20;96.70;;;;;;5067680;28;20437;-91
2022/12/04 02:15:44;;;;;;;16.73;4.28;;;12.20;96.70;;;;;;5067813;28;20028;-91
2022/12/04 02:18:28;;;;;;;10.68;4.45;;;12.20;96.70;;;;;;5041012;28;20075;-91
2022/12/04 02:21:08;;;;;;;10.85;4.03;;;12.30;96.80;;;;;;5047909;28;20163;-91
2022/12/04 02:24:15;;;;;;;13.10;4.47;;;12.20;96.70;;;;;;5031385;28;20024;-91
2022/12/04 02:27:03;;;;;;;12.13;4.03;;;12.30;96.80;;;;;;5032203;28;20478;-92
2022/12/04 02:29:47;;;;;;;10.30;4.28;;;12.30;96.80;;;;;;5030994;28;20033;-92
2022/12/04 02:32:41;;;;;;;14.23;4.30;;;12.20;96.80;;;;;;5031146;28;20026;-91
2022/12/04 02:35:12;;;;;;;10.93;4.85;;;12.30;96.80;;;;;;5055220;28;20021;-92
2022/12/04 02:37:45;;;;;;;8.13;3.80;;;12.20;96.80;;;;;;5067209;28;20024;-91
2022/12/04 02:40:22;;;;;;;9.18;4.15;;;12.30;96.90;;;;;;5052191;28;20071;-91
2022/12/04 02:43:15;;;;;;;16.15;4.35;;;12.30;96.90;;;;;;5038068;28;20112;-91
2022/12/04 02:45:47;;;;;;;7.63;3.80;;;12.30;96.80;;;;;;5031168;28;20025;-91
2022/12/04 02:48:18;;;;;;;10.10;3.28;;;12.30;96.80;;;;;;5030919;28;20030;-92
2022/12/04 02:50:47;;;;;;;7.57;3.53;;;12.20;96.80;;;;;;5030946;28;20037;-92
2022/12/04 02:53:22;;;;;;;13.10;4.18;;;12.30;96.80;;;;;;5030856;28;20021;-92
2022/12/04 02:55:53;;;;;;;10.60;3.80;;;12.20;96.80;;;;;;5030966;28;20033;-92
2022/12/04 02:58:28;;;;;;;17.83;4.75;;;12.20;96.80;;;;;;5047297;28;20029;-90
2022/12/04 03:00:56;;;;;;;11.32;3.38;;;12.30;96.90;;;;;;5032105;28;20017;-91
2022/12/04 03:03:25;;;;;;;13.13;4.15;;;12.20;96.80;;;;;;5031882;28;20022;-91
2022/12/04 03:06:04;;;;;;;8.25;3.40;;;12.30;96.90;;;;;;5030836;28;20026;-91
2022/12/04 03:08:40;;;;;;;10.98;3.38;;;12.30;96.90;;;;;;5047227;28;20037;-91
2022/12/04 03:11:06;;;;;;;12.70;4.15;;;12.30;96.90;;;;;;5030749;28;20402;-91
2022/12/04 03:13:38;;;;;;;8.85;4.00;;;12.20;96.80;;;;;;5030894;28;20021;-92
2022/12/04 03:16:17;;;;;;;7.43;3.42;;;12.30;96.90;;;;;;5030892;28;20064;-90
2022/12/04 03:18:49;;;;;;;9.00;3.60;;;12.30;96.90;;;;;;5060858;28;20503;-92
2022/12/04 03:21:22;;;;;;;7.45;3.92;;;12.30;96.90;;;;;;5067244;28;20044;-91
2022/12/04 03:24:13;;;;;;;11.63;3.78;;;12.30;96.90;;;;;;5050600;28;20116;-91
2022/12/04 03:26:58;;;;;;;8.82;3.72;;;12.30;96.90;;;;;;5055603;28;20025;-91
2022/12/04 03:29:53;;;;;;;6.47;3.33;;;12.20;96.90;;;;;;5042861;28;20033;-91
2022/12/04 03:32:49;;;;;;;10.18;4.20;;;12.20;96.90;;;;;;5054155;28;20027;-91
2022/12/04 03:35:21;;;;;;;9.35;3.95;;;12.30;96.90;;;;;;5055597;28;20036;-91
2022/12/04 03:38:02;;;;;;;10.40;4.10;;;12.30;97.30;;;;;;5070333;28;20029;-91
2022/12/04 03:40:36;;;;;;;14.15;4.40;;;12.30;96.90;;;;;;5053971;28;20021;-91
2022/12/04 03:43:29;;;;;;;10.40;3.67;;;12.30;96.90;;;;;;5053763;28;20068;-91
2022/12/04 03:45:58;;;;;;;8.52;4.10;;;12.30;96.90;;;;;;5053729;28;20027;-91
2022/12/04 03:48:45;;;;;;;14.18;3.38;;;12.30;96.90;;;;;;5053609;28;20021;-91
2022/12/04 03:51:28;;;;;;;5.97;3.15;;;12.30;96.90;;;;;;5053878;28;20040;-90
2022/12/04 03:54:04;;;;;;;7.72;3.70;;;12.30;97.00;;;;;;5034952;28;20108;-91
2022/12/04 03:56:34;;;;;;;14.82;4.03;;;12.30;97.00;;;;;;5033569;28;20121;-91
2022/12/04 03:59:21;;;;;;;6.88;3.50;;;12.30;97.00;;;;;;5049044;28;20021;-91
2022/12/04 04:01:49;;;;;;;9.52;4.13;;;12.30;97.00;;;;;;5053496;28;20570;-91
2022/12/04 04:04:21;;;;;;;10.07;4.25;;;12.20;97.00;;;;;;5054668;28;20403;-91
2022/12/04 04:06:55;;;;;;;12.27;3.72;;;12.30;97.10;;;;;;5053579;28;20029;-92
2022/12/04 04:09:25;;;;;;;8.70;3.95;;;12.20;97.00;;;;;;5034696;28;20029;-91
2022/12/04 04:12:06;;;;;;;8.23;3.30;;;12.20;97.00;;;;;;5069975;28;20079;-91
2022/12/04 04:25:56;;;;;;;6.07;3.40;;;12.30;97.10;;;;;;5034799;28;20036;-92
2022/12/04 04:28:37;;;;;;;9.18;3.67;;;12.30;97.10;;;;;;5034460;28;20030;-90
2022/12/04 04:31:25;;;;;;;7.47;3.47;;;12.30;97.10;;;;;;5049683;28;20086;-91
2022/12/04 04:34:12;;;;;;;12.75;4.00;;;12.20;97.00;;;;;;5049659;28;20037;-91
2022/12/04 04:37:00;;;;;;;11.90;4.15;;;12.30;97.10;;;;;;5049550;28;20025;-91
2022/12/04 04:39:49;;;;;;;7.28;3.50;;;12.20;97.00;;;;;;5050267;28;20551;-92
2022/12/04 04:42:29;;;;;;;7.20;3.17;;;12.20;97.00;;;;;;5069745;28;20032;-91
2022/12/04 04:45:15;;;;;;;10.60;3.17;;;12.30;97.10;;;;;;5052968;28;20028;-91
2022/12/04 04:47:55;;;;;;;6.68;3.40;;;12.20;97.10;;;;;;5052152;28;20504;-91
2022/12/04 04:50:21;;;;;;;11.88;3.55;;;12.20;97.40;;;;;;5069372;28;20393;-91
2022/12/04 04:52:55;;;;;;;9.15;3.42;;;12.30;97.10;;;;;;5052706;28;20021;-91
2022/12/04 04:55:22;;;;;;;11.60;3.17;;;12.30;97.10;;;;;;5052423;28;20036;-92
2022/12/04 04:57:47;;;;;;;9.20;3.30;;;12.30;97.10;;;;;;5052188;28;20029;-91
2022/12/04 05:00:20;;;;;;;6.60;3.40;;;12.30;97.10;;;;;;5037798;28;20032;-91
2022/12/04 05:02:47;;;;;;;7.38;3.42;;;12.30;97.10;;;;;;5032381;28;20544;-91
2022/12/04 05:05:13;;;;;;;8.50;3.72;;;12.30;97.10;;;;;;5032547;28;20145;-91
2022/12/04 05:07:38;;;;;;;7.57;3.58;;;12.30;97.20;;;;;;5032375;28;20061;-91
2022/12/04 05:10:05;;;;;;;8.43;3.30;;;12.30;97.20;;;;;;5033063;28;20029;-92
2022/12/04 05:12:30;;;;;;;7.95;3.05;;;12.30;97.20;;;;;;5033375;28;20025;-91
2022/12/04 05:14:56;;;;;;;8.63;3.60;;;12.30;97.10;;;;;;5032534;28;20028;-92
2022/12/04 05:17:21;;;;;;;8.32;3.45;;;12.30;97.10;;;;;;5032940;28;20079;-91
2022/12/04 05:19:53;;;;;;;15.00;4.10;;;12.30;97.10;;;;;;5032340;28;20025;-92
2022/12/04 05:22:20;;;;;;;8.27;3.75;;;12.30;97.10;;;;;;5032407;28;20051;-91
2022/12/04 05:24:46;;;;;;;11.50;4.63;;;12.30;97.10;;;;;;5032317;28;20117;-92
2022/12/04 05:27:11;;;;;;;8.77;3.33;;;12.30;97.10;;;;;;5033268;28;20053;-91
2022/12/04 05:29:37;;;;;;;8.45;2.85;;;12.30;97.10;;;;;;5048498;28;20093;-92
2022/12/04 05:32:03;;;;;;;6.70;3.50;;;12.30;97.00;;;;;;5032180;28;20034;-92
2022/12/04 05:34:28;;;;;;;7.80;3.53;;;12.30;97.40;;;;;;5031920;28;20116;-92
2022/12/04 05:36:54;;;;;;;8.10;3.50;;;12.30;97.00;;;;;;5062890;28;20032;-91
2022/12/04 05:39:19;;;;;;;6.20;2.60;;;12.30;97.10;;;;;;5034819;28;20029;-91
2022/12/04 05:41:46;;;;;;;6.13;3.00;;;12.30;97.00;;;;;;5031620;28;20022;-92
2022/12/04 05:44:11;;;;;;;7.82;3.70;;;12.30;97.00;;;;;;5031521;28;20479;-92
2022/12/04 05:46:37;;;;;;;7.97;3.30;;;12.30;97.00;;;;;;5031486;28;20033;-92
2022/12/04 05:49:03;;;;;;;7.70;2.70;;;12.30;97.00;;;;;;5032459;28;20033;-91
2022/12/04 05:51:28;;;;;;;6.45;2.92;;;12.30;97.00;;;;;;5031940;28;20032;-92
2022/12/04 05:53:54;;;;;;;6.70;3.33;;;12.30;97.00;;;;;;5048041;28;20021;-91
2022/12/04 05:56:19;;;;;;;14.05;3.85;;;12.30;97.00;;;;;;5048085;28;20032;-91
2022/12/04 05:58:45;;;;;;;13.13;3.30;;;12.30;97.00;;;;;;5047838;28;20032;-91
2022/12/04 06:01:14;;;;;;;9.45;3.55;;;12.30;97.00;;;;;;5048101;28;20183;-90
2022/12/04 06:03:40;;;;;;;9.77;3.17;;;12.30;97.00;;;;;;5047966;28;20059;-91
2022/12/04 06:06:28;;;;;;;8.43;3.15;;;12.30;97.00;;;;;;5032589;28;20564;-91
2022/12/04 06:08:56;;;;;;;8.93;3.30;;;12.30;97.00;;;;;;5047857;28;20456;-91
2022/12/04 06:11:24;;;;;;;8.52;2.85;;;12.30;97.00;;;;;;5047660;28;20025;-91
2022/12/04 06:13:50;;;;;;;5.63;2.72;;;12.30;96.90;;;;;;5031394;28;20688;-91
2022/12/04 06:16:28;;;;;;;6.88;2.88;;;12.30;97.00;;;;;;5050069;28;20025;-91
2022/12/04 06:18:56;;;;;;;14.63;3.38;;;12.30;97.00;;;;;;5050920;28;20086;-91
2022/12/04 06:21:23;;;;;;;7.57;3.28;;;12.30;96.90;;;;;;5051136;28;20017;-91
2022/12/04 06:23:50;;;;;;;6.85;3.03;;;12.20;97.00;;;;;;5051170;28;20021;-91
2022/12/04 06:26:16;;;;;;;11.25;3.17;;;12.30;97.00;;;;;;5051127;28;20025;-91
2022/12/04 06:28:42;;;;;;;11.77;4.53;;;12.30;97.00;;;;;;5050931;28;20025;-91
2022/12/04 06:31:10;;;;;;;11.00;3.15;;;12.30;96.90;;;;;;5051016;28;20044;-92
2022/12/04 06:33:36;;;;;;;13.63;2.92;;;12.30;96.90;;;;;;5051341;28;20025;-90
2022/12/04 06:36:04;;;;;;;8.27;3.45;;;12.30;97.50;;;;;;5052111;28;20048;-95
2022/12/04 06:38:31;;;;;;;17.15;3.95;;;12.30;97.20;;;;;;5057578;28;20029;-94
2022/12/04 06:40:56;;;;;;;11.18;3.25;;;12.30;97.10;;;;;;5059100;28;20023;-95
2022/12/04 06:43:22;;;;;;;10.75;3.45;;;12.30;97.10;;;;;;5058636;28;20066;-93
2022/12/04 06:45:48;;;;;;;11.88;3.30;;;12.30;97.10;;;;;;5051299;28;20029;-93
2022/12/04 06:48:13;;;;;;;12.38;3.25;;;12.30;97.20;;;;;;5067680;28;20025;-93
2022/12/04 06:50:39;;;;;;;10.52;3.58;;;12.30;97.10;;;;;;5060750;28;20084;-93
2022/12/04 06:53:05;;;;;;;10.93;3.35;;;12.30;97.00;;;;;;5030986;28;20157;-93
2022/12/04 06:55:30;;;;;;;9.55;3.45;;;12.30;96.90;;;;;;5044900;28;20115;-92
2022/12/04 06:57:56;;;;;;;9.65;3.30;;;12.30;97.00;;;;;;5051063;28;20021;-92
2022/12/04 07:00:21;;;;;;;12.73;3.55;;;12.30;97.10;;;;;;5053613;28;20025;-93
2022/12/04 07:02:47;;;;;;;10.30;3.55;;;12.30;97.00;;;;;;5056510;28;20029;-93
2022/12/04 07:05:13;;;;;;;10.57;3.67;;;12.30;97.10;;;;;;5054815;28;20115;-93
2022/12/04 07:07:39;;;;;;;21.15;3.65;;;12.30;97.00;;;;;;5054973;28;20035;-93
2022/12/04 07:10:05;;;;;;;13.63;4.03;;;12.30;96.90;;;;;;5055436;28;20025;-93
2022/12/04 07:12:31;;;;;;;11.70;3.72;;;12.30;97.00;;;;;;5054920;28;20021;-94
2022/12/04 07:14:56;;;;;;;5.53;2.88;;;12.30;96.90;;;;;;5054818;28;20029;-93
2022/12/04 07:17:22;;;;;;;10.15;3.30;;;12.30;96.90;;;;;;5054197;28;20036;-92
2022/12/04 07:19:47;;;;;;;17.20;3.33;;;12.30;97.10;;;;;;5054476;28;20116;-93
2022/12/04 07:22:13;;;;;;;6.85;3.13;;;12.30;97.00;;;;;;5054646;28;20053;-93
2022/12/04 07:24:39;;;;;;;7.85;3.58;;;12.30;97.00;;;;;;5054275;28;20490;-93
2022/12/04 07:27:04;;;;;;;5.88;2.65;;;12.30;97.00;;;;;;5054278;28;20025;-93
2022/12/04 07:29:30;;;;;;;6.40;3.05;;;12.30;96.90;;;;;;5054011;28;20048;-91
2022/12/04 07:31:56;;;;;;;8.60;2.92;;;12.30;96.90;;;;;;5053770;28;20078;-92
2022/12/04 07:34:22;;;;;;;8.48;3.20;;;12.30;96.90;;;;;;5053794;28;20029;-92
2022/12/04 07:36:47;;;;;;;10.25;3.38;;;12.30;96.80;;;;;;5053999;28;20025;-92
2022/12/04 07:39:13;;;;;;;8.32;2.78;;;12.30;96.80;;;;;;5055021;28;20024;-90
2022/12/04 07:41:38;;;;;;;7.03;3.08;;;12.30;96.70;;;;;;5053991;28;20036;-92
2022/12/04 07:44:04;;;;;;;10.25;3.33;;;12.20;96.70;;;;;;5053918;28;20425;-93
2022/12/04 07:46:30;;;;;;;7.88;3.08;;;12.20;96.70;;;;;;5057162;28;20021;-94
2022/12/04 07:48:56;;;;;;;7.80;3.03;;;12.20;96.70;;;;;;5038567;28;20030;-93
2022/12/04 07:51:25;;;;;;;12.45;4.68;;;12.20;96.70;;;;;;5050821;28;20032;-93
2022/12/04 07:53:52;;;;;;;16.15;7.03;;;12.30;96.70;;;;;;5050715;28;20114;-90
2022/12/04 07:56:18;;;;;;;18.92;7.60;;;11.30;90.20;;;;;;5070733;28;20032;-90
2022/12/04 07:58:44;;;;;;;19.52;8.55;;;11.50;96.50;;;;;;5055958;28;20032;-90
2022/12/04 08:01:19;;;;;;;19.83;8.50;;;11.60;89.90;;;;;;5054598;28;20051;-95
2022/12/04 08:03:46;;;;;;;16.25;7.53;;;11.60;88.50;;;;;;5051969;28;20021;-93
2022/12/04 08:06:12;;;;;;;27.40;8.95;;;11.40;88.50;;;;;;5056181;28;20051;-91
2022/12/04 08:08:37;;;;;;;25.20;7.72;;;11.60;90.30;;;;;;5067775;28;20641;-95
2022/12/04 08:11:08;;;;;;;30.25;8.38;;;11.90;90.70;;;;;;5057949;28;20041;-94
2022/12/04 08:13:33;;;;;;;19.05;7.88;;;12.00;91.30;;;;;;5078488;28;20020;-95
2022/12/04 08:16:04;;;;;;;18.58;7.25;;;12.00;92.00;;;;;;5066026;28;20467;-94
2022/12/04 08:18:29;;;;;;;;;;;12.10;92.40;;;;;;5074465;28;20286;-95
2022/12/04 08:21:02;;;;;;;32.15;7.22;;;12.10;92.80;;;;;;5071120;28;19916;-93
2022/12/04 08:23:28;;;;;;;18.30;6.57;;;12.10;93.30;;;;;;5044577;28;20029;-93
2022/12/04 08:25:56;;;;;;;28.20;6.72;;;12.20;93.60;;;;;;5051631;28;20608;-92
2022/12/04 08:28:21;;;;;;;30.15;7.57;;;12.20;93.70;;;;;;5034725;28;20053;-93
2022/12/04 08:30:47;;;;;;;18.92;7.93;;;12.20;92.00;;;;;;5045683;28;20067;-90
2022/12/04 08:33:12;;;;;;;20.63;6.80;;;12.20;89.20;;;;;;5044514;28;20032;-93
2022/12/04 08:35:38;;;;;;;13.23;6.43;;;12.20;90.80;;;;;;5052457;28;20028;-92
2022/12/04 08:38:04;;;;;;;12.82;6.35;;;12.20;91.30;;;;;;5053191;28;20025;-92
2022/12/04 08:40:29;;;;;;;14.82;5.97;;;12.30;91.90;;;;;;5040457;28;20025;-93
2022/12/04 08:42:55;;;;;;;12.40;5.30;;;12.30;92.30;;;;;;5041335;28;20013;-92
2022/12/04 08:45:20;;;;;;;13.55;5.30;;;12.40;92.70;;;;;;5036467;28;20021;-92
2022/12/04 08:47:46;;;;;;;12.15;5.80;;;12.40;93.00;;;;;;5052711;28;20021;-92
2022/12/04 08:50:11;;;;;;;11.40;5.20;;;12.50;93.30;;;;;;5052989;28;20513;-93
2022/12/04 08:52:37;;;;;;;11.35;4.10;;;12.60;93.40;;;;;;5052939;28;20478;-93
2022/12/04 08:55:02;;;;;;;16.20;4.25;;;12.60;93.60;;;;;;5053058;28;20123;-90
2022/12/04 08:57:28;;;;;;;11.93;4.65;;;12.60;93.80;;;;;;5053343;28;20120;-93
2022/12/04 08:59:54;;;;;;;12.23;4.28;;;12.70;93.80;;;;;;5053727;28;20131;-92
2022/12/04 09:02:19;;;;;;;12.13;4.35;;;12.70;94.10;;;;;;5053404;28;20025;-92
2022/12/04 09:04:45;;;;;;;8.40;4.22;;;12.80;94.10;;;;;;5053612;28;20028;-94
2022/12/04 09:07:10;;;;;;;8.63;3.97;;;12.80;94.20;;;;;;5053786;28;20124;-93
2022/12/04 09:09:36;;;;;;;7.63;3.30;;;12.80;94.20;;;;;;5053121;28;20079;-92
2022/12/04 09:12:02;;;;;;;12.32;3.70;;;12.90;94.20;;;;;;5054351;28;20120;-93
2022/12/04 09:14:27;;;;;;;9.18;3.45;;;12.90;94.30;;;;;;5053635;28;20025;-91
2022/12/04 09:16:53;;;;;;;5.15;3.50;;;13.00;94.50;;;;;;5048259;28;20044;-93
2022/12/04 09:19:19;;;;;;;7.35;4.07;;;13.00;94.50;;;;;;5050514;28;20021;-93
2022/12/04 09:21:45;;;;;;;6.93;3.10;;;13.10;94.60;;;;;;5049513;28;20222;-92
2022/12/04 09:24:11;;;;;;;8.95;3.05;;;13.10;94.60;;;;;;5055488;28;20473;-91
2022/12/04 09:26:37;;;;;;;6.88;3.17;;;13.10;94.70;;;;;;5053580;28;20120;-93
2022/12/04 09:29:04;;;;;;;6.50;3.17;;;13.10;94.70;;;;;;5053102;28;20520;-91
2022/12/04 09:31:31;;;;;;;6.90;3.45;;;13.20;94.80;;;;;;5053603;28;20035;-92
2022/12/04 09:33:58;;;;;;;8.40;3.47;;;13.30;94.90;;;;;;5054134;28;20052;-92
2022/12/04 09:36:24;;;;;;;5.40;3.47;;;13.30;95.10;;;;;;5055056;28;20455;-92
2022/12/04 09:38:52;;;;;;;8.70;2.90;;;13.40;95.30;;;;;;5055461;28;20071;-92
2022/12/04 09:41:32;;;;;;;6.72;3.78;;;13.40;95.50;;;;;;5053637;28;20021;-91
2022/12/04 09:44:04;;;;;;;6.13;3.13;;;13.50;95.50;;;;;;5069828;28;20051;-91
2022/12/04 09:46:35;;;;;;;11.02;2.92;;;13.50;95.40;;;;;;5033037;28;20029;-90
2022/12/04 09:49:11;;;;;;;8.40;3.00;;;13.60;95.30;;;;;;5034398;28;20026;-92
2022/12/04 09:51:39;;;;;;;9.02;3.13;;;13.60;95.30;;;;;;5062242;28;20612;-92
2022/12/04 09:54:13;;;;;;;7.45;3.17;;;13.60;95.20;;;;;;5034135;28;20037;-92
2022/12/04 09:56:39;;;;;;;9.05;3.53;;;13.70;95.20;;;;;;5036961;28;20026;-92
2022/12/04 09:59:14;;;;;;;6.65;2.67;;;13.70;95.20;;;;;;5036778;28;20068;-92
2022/12/04 10:01:55;;;;;;;6.65;2.75;;;13.80;95.30;;;;;;5035927;28;20029;-92
2022/12/04 10:04:21;;;;;;;3.53;2.78;;;13.80;95.30;;;;;;5050974;28;20025;-92
2022/12/04 10:07:05;;;;;;;4.88;2.75;;;13.80;95.10;;;;;;5050319;28;20133;-92
2022/12/04 10:09:52;;;;;;;5.60;2.63;;;13.90;95.10;;;;;;5051561;28;20026;-92
2022/12/04 10:12:25;;;;;;;9.73;2.80;;;13.90;95.10;;;;;;5051526;28;20147;-92
2022/12/04 10:15:23;;;;;;;5.13;3.03;;;14.00;95.10;;;;;;5033424;28;20021;-92
2022/12/04 10:18:10;;;;;;;6.68;2.70;;;14.00;95.00;;;;;;5050206;28;20029;-91
2022/12/04 10:20:44;;;;;;;7.20;2.83;;;14.00;94.90;;;;;;5058240;28;20044;-92
2022/12/04 10:23:35;;;;;;;4.07;2.80;;;14.10;94.80;;;;;;5050100;28;20025;-92
2022/12/04 10:26:03;;;;;;;3.85;2.47;;;14.10;94.80;;;;;;5050109;28;20117;-92
2022/12/04 10:28:40;;;;;;;6.47;3.05;;;14.20;94.80;;;;;;5033118;28;20029;-92
2022/12/04 10:31:11;;;;;;;4.78;3.03;;;14.20;94.90;;;;;;5034544;28;20048;-91
2022/12/04 10:33:57;;;;;;;4.07;2.28;;;14.20;94.80;;;;;;5034181;28;20116;-91
2022/12/04 10:36:29;;;;;;;5.70;2.80;;;14.30;94.70;;;;;;5053471;28;20079;-91
2022/12/04 10:38:57;;;;;;;3.85;2.20;;;14.30;94.70;;;;;;5053602;28;20021;-92
2022/12/04 10:41:44;;;;;;;3.42;2.30;;;14.30;94.60;;;;;;5052900;28;20052;-91
2022/12/04 10:44:16;;;;;;;5.65;2.25;;;14.40;94.70;;;;;;5052990;28;20032;-91
2022/12/04 10:46:41;;;;;;;7.15;2.58;;;14.40;94.60;;;;;;5052715;28;20478;-92
2022/12/04 10:49:19;;;;;;;6.93;2.72;;;14.50;94.50;;;;;;5053745;28;20036;-92
2022/12/04 10:51:46;;;;;;;3.60;2.17;;;14.40;94.60;;;;;;5038452;28;20022;-91
2022/12/04 10:54:32;;;;;;;5.25;2.55;;;14.50;94.60;;;;;;5055028;28;20037;-88
2022/12/04 10:57:00;;;;;;;4.50;2.35;;;14.60;94.60;;;;;;5073515;28;20082;-92
2022/12/04 10:59:27;;;;;;;3.15;2.17;;;14.50;94.50;;;;;;5044219;28;20130;-93
2022/12/04 11:02:22;;;;;;;5.90;2.42;;;14.60;94.50;;;;;;5047379;28;20489;-93
2022/12/04 11:04:55;;;;;;;10.98;2.83;;;14.60;94.50;;;;;;5077429;28;20005;-92
2022/12/04 11:07:25;;;;;;;4.78;2.53;;;14.80;96.20;;;;;;5054422;28;20116;-89
2022/12/04 11:09:56;;;;;;;3.80;2.33;;;14.80;94.80;;;;;;5054588;28;20025;-87
2022/12/04 11:12:23;;;;;;;4.10;2.35;;;14.90;94.60;;;;;;5053161;28;20110;-88
2022/12/04 11:15:04;;;;;;;8.20;2.28;;;15.00;94.50;;;;;;5043878;28;20017;-90
2022/12/04 11:17:30;;;;;;;5.75;2.33;;;15.00;94.90;;;;;;5047884;28;20416;-89
2022/12/04 11:20:07;;;;;;;3.17;2.15;;;15.00;94.80;;;;;;5055639;28;20030;-85
2022/12/04 11:22:47;;;;;;;8.15;2.25;;;15.10;95.00;;;;;;5071437;28;20050;-88
2022/12/04 11:25:25;;;;;;;2.92;2.05;;;15.10;94.90;;;;;;5071374;28;20027;-89
2022/12/04 11:27:54;;;;;;;5.55;2.65;;;15.10;94.70;;;;;;5051128;28;20029;-88
2022/12/04 11:30:45;;;;;;;5.15;2.42;;;15.10;94.50;;;;;;5067773;28;20037;-90
2022/12/04 11:33:26;;;;;;;3.75;2.42;;;15.20;94.60;;;;;;5044787;28;20025;-87
2022/12/04 11:35:58;;;;;;;4.40;2.78;;;15.20;94.40;;;;;;5034911;28;20438;-88
2022/12/04 11:38:26;;;;;;;5.13;2.55;;;15.20;94.50;;;;;;5034971;28;20029;-89
2022/12/04 11:40:56;;;;;;;6.35;2.33;;;15.20;94.30;;;;;;5035129;28;20124;-89
2022/12/04 11:43:25;;;;;;;7.20;2.38;;;15.20;94.40;;;;;;5028215;28;20112;-90
2022/12/04 11:46:02;;;;;;;3.63;2.47;;;15.30;94.40;;;;;;5057304;28;20678;-91
2022/12/04 11:48:40;;;;;;;3.72;2.30;;;15.30;94.40;;;;;;5053819;28;20037;-88
2022/12/04 11:51:21;;;;;;;6.35;2.08;;;15.30;94.20;;;;;;5052730;28;20040;-89
2022/12/04 11:53:54;;;;;;;2.35;1.88;;;15.30;94.20;;;;;;5040674;28;20037;-92
2022/12/04 11:56:48;;;;;;;3.78;2.55;;;15.40;94.10;;;;;;5043493;28;20093;-88
2022/12/04 11:59:21;;;;;;;3.95;2.28;;;15.40;94.10;;;;;;5031983;28;20475;-88
2022/12/04 12:01:59;;;;;;;8.43;2.80;;;15.40;94.00;;;;;;5051008;28;20041;-90
2022/12/04 12:04:52;;;;;;;4.68;2.30;;;15.40;94.10;;;;;;5062896;28;20028;-85
2022/12/04 12:07:48;;;;;;;3.72;2.25;;;15.50;94.00;;;;;;5054083;28;20025;-89
2022/12/04 12:10:52;;;;;;;2.42;1.88;;;15.50;94.00;;;;;;5045636;28;20029;-88
2022/12/04 12:13:56;;;;;;;3.25;2.17;;;15.50;94.00;;;;;;5045068;28;20029;-90
2022/12/04 12:16:33;;;;;;;3.40;2.20;;;15.50;94.00;;;;;;5053912;28;20108;-88
2022/12/04 12:19:20;;;;;;;4.18;2.28;;;15.50;93.90;;;;;;5053988;28;20021;-88
2022/12/04 12:22:03;;;;;;;4.50;2.40;;;15.50;93.90;;;;;;5054184;28;20021;-89
2022/12/04 12:24:39;;;;;;;7.57;2.67;;;15.50;93.90;;;;;;5058202;28;20025;-88
2022/12/04 12:27:23;;;;;;;3.42;2.28;;;15.50;93.80;;;;;;5034754;28;20022;-90
2022/12/04 12:29:59;;;;;;;4.13;2.05;;;15.60;94.00;;;;;;5078068;28;20466;-92
2022/12/04 12:32:46;;;;;;;4.22;2.42;;;15.60;93.80;;;;;;5051724;28;20125;-90
2022/12/04 12:35:23;;;;;;;4.43;2.50;;;15.60;93.80;;;;;;5053459;28;20032;-92
2022/12/04 12:37:53;;;;;;;5.38;2.30;;;15.50;93.50;;;;;;5072410;28;20087;-89
2022/12/04 12:41:00;;;;;;;4.32;2.42;;;15.50;93.30;;;;;;5056865;28;20052;-88
2022/12/04 12:43:32;;;;;;;5.00;2.45;;;15.50;93.30;;;;;;5055929;28;20568;-88
2022/12/04 12:46:21;;;;;;;4.15;2.38;;;15.50;93.30;;;;;;5054345;28;20111;-89
2022/12/04 12:49:29;;;;;;;6.87;2.40;;;15.60;93.20;;;;;;5071078;28;20103;-91
2022/12/04 12:52:11;;;;;;;3.65;1.85;;;15.50;93.30;;;;;;5054208;28;20074;-90
2022/12/04 12:54:47;;;;;;;2.75;2.08;;;15.50;93.30;;;;;;5071051;28;20035;-90
2022/12/04 12:57:17;;;;;;;4.70;2.17;;;15.50;93.30;;;;;;5054838;28;20079;-91
2022/12/04 12:59:49;;;;;;;3.13;2.08;;;15.60;93.30;;;;;;5071432;28;20112;-90
2022/12/04 13:02:50;;;;;;;3.78;2.08;;;15.50;93.50;;;;;;5055083;28;20108;-90
2022/12/04 13:05:25;;;;;;;4.47;2.63;;;15.60;93.50;;;;;;5070752;28;20025;-90
2022/12/04 13:08:09;;;;;;;3.22;2.00;;;15.60;93.50;;;;;;5054039;28;20468;-93
2022/12/04 13:10:46;;;;;;;5.00;2.47;;;15.60;93.60;;;;;;5072942;28;20024;-92
2022/12/04 13:13:18;;;;;;;4.15;2.70;;;15.60;93.80;;;;;;5053296;28;20025;-91
2022/12/04 13:15:58;;;;;;;7.05;2.40;;;15.60;93.90;;;;;;5052814;28;20036;-89
2022/12/04 13:18:39;;;;;;;7.20;2.60;;;15.60;93.90;;;;;;5052278;28;20029;-89